createdAt,value
2019-03-01T00:04:45.572Z,100460.64
2019-03-01T00:07:51.720Z,100458.33
2019-03-01T00:14:02.430Z,100462.94
2019-03-01T00:17:08.554Z,100462.34
2019-03-01T00:20:14.902Z,100457.58
2019-03-01T00:23:21.014Z,100457.45
2019-03-01T00:26:27.276Z,100450.39
2019-03-01T00:29:33.409Z,100449.91
2019-03-01T00:32:39.555Z,100442.12
2019-03-01T00:39:14.284Z,100431.48
2019-03-01T00:42:07.642Z,100428.73
2019-03-01T00:44:54.310Z,100424.43
2019-03-01T00:47:21.460Z,100429.36
2019-03-01T00:49:48.642Z,100424.44
2019-03-01T00:52:15.852Z,100420.00
2019-03-01T00:54:43.032Z,100424.06
2019-03-01T01:03:16.268Z,100415.70
2019-03-01T01:08:44.644Z,100421.19
2019-03-01T01:11:52.688Z,100417.48
2019-03-01T01:17:20.989Z,100411.50
2019-03-01T01:19:48.153Z,100415.69
2019-03-01T01:22:27.852Z,100411.15
2019-03-01T01:24:55.014Z,100402.75
2019-03-01T01:27:22.532Z,100402.87
2019-03-01T01:29:49.750Z,100401.47
2019-03-01T01:35:30.918Z,100392.26
2019-03-01T01:38:29.763Z,100386.75
2019-03-01T01:43:58.158Z,100385.19
2019-03-01T01:46:25.368Z,100381.83
2019-03-01T01:48:52.556Z,100375.48
2019-03-01T01:54:34.284Z,100376.31
2019-03-01T01:57:01.465Z,100378.95
2019-03-01T01:59:28.617Z,100387.35
2019-03-01T02:02:36.672Z,100381.59
2019-03-01T02:08:24.419Z,100381.73
2019-03-01T02:10:51.959Z,100370.55
2019-03-01T02:13:19.199Z,100371.77
2019-03-01T02:15:46.392Z,100374.02
2019-03-01T02:18:13.505Z,100374.73
2019-03-01T02:20:40.561Z,100367.45
2019-03-01T02:23:07.767Z,100365.78
2019-03-01T02:25:34.936Z,100364.46
2019-03-01T02:28:02.116Z,100357.27
2019-03-01T02:30:29.469Z,100351.19
2019-03-01T02:32:56.672Z,100347.72
2019-03-01T02:35:25.207Z,100347.36
2019-03-01T02:37:52.464Z,100343.06
2019-03-01T02:40:19.641Z,100352.49
2019-03-01T02:42:46.853Z,100344.00
2019-03-01T02:45:15.703Z,100341.51
2019-03-01T02:47:42.776Z,100334.69
2019-03-01T02:50:11.267Z,100334.92
2019-03-01T02:52:38.491Z,100328.36
2019-03-01T02:55:47.122Z,100322.47
2019-03-01T02:58:14.407Z,100318.03
2019-03-01T03:00:41.567Z,100322.95
2019-03-01T03:03:08.733Z,100313.02
2019-03-01T03:08:27.388Z,100309.59
2019-03-01T03:10:54.577Z,100314.46
2019-03-01T03:13:21.728Z,100312.78
2019-03-01T03:16:29.770Z,100303.94
2019-03-01T03:18:57.075Z,100304.38
2019-03-01T03:24:45.362Z,100304.03
2019-03-01T03:27:24.806Z,100305.47
2019-03-01T03:29:51.996Z,100300.58
2019-03-01T03:32:19.215Z,100302.61
2019-03-01T03:35:07.350Z,100302.75
2019-03-01T03:37:34.531Z,100300.94
2019-03-01T03:40:01.734Z,100301.30
2019-03-01T03:42:29.130Z,100292.57
2019-03-01T03:44:56.268Z,100296.77
2019-03-01T03:47:23.383Z,100297.13
2019-03-01T03:49:51.127Z,100297.95
2019-03-01T03:52:18.287Z,100295.33
2019-03-01T03:54:45.471Z,100276.39
2019-03-01T03:57:12.759Z,100279.17
2019-03-01T03:59:39.996Z,100280.27
2019-03-01T04:02:07.177Z,100272.58
2019-03-01T04:04:34.360Z,100277.63
2019-03-01T04:07:01.562Z,100275.46
2019-03-01T04:09:29.082Z,100257.78
2019-03-01T04:11:57.229Z,100270.09
2019-03-01T04:14:24.588Z,100271.53
2019-03-01T04:16:51.793Z,100270.58
2019-03-01T04:19:18.975Z,100261.37
2019-03-01T04:21:46.154Z,100260.19
2019-03-01T04:24:13.622Z,100255.30
2019-03-01T04:26:40.856Z,100258.89
2019-03-01T04:29:08.036Z,100253.96
2019-03-01T04:31:35.228Z,100247.65
2019-03-01T04:34:02.465Z,100246.80
2019-03-01T04:36:29.664Z,100239.16
2019-03-01T04:38:56.928Z,100238.78
2019-03-01T04:41:24.294Z,100241.52
2019-03-01T04:43:51.548Z,100232.58
2019-03-01T04:46:19.144Z,100236.75
2019-03-01T04:48:46.584Z,100243.91
2019-03-01T04:51:13.759Z,100234.00
2019-03-01T04:53:41.033Z,100228.62
2019-03-01T04:56:08.342Z,100225.30
2019-03-01T04:58:35.550Z,100229.22
2019-03-01T05:01:03.242Z,100227.92
2019-03-01T05:03:30.575Z,100225.64
2019-03-01T05:05:57.693Z,100230.64
2019-03-01T05:08:24.966Z,100231.74
2019-03-01T05:10:52.157Z,100227.80
2019-03-01T05:13:19.337Z,100233.77
2019-03-01T05:15:46.803Z,100231.62
2019-03-01T05:18:14.599Z,100225.27
2019-03-01T05:20:41.643Z,100229.60
2019-03-01T05:23:08.845Z,100230.66
2019-03-01T05:25:36.045Z,100225.16
2019-03-01T05:28:03.222Z,100225.77
2019-03-01T05:30:30.365Z,100222.89
2019-03-01T05:32:57.594Z,100220.02
2019-03-01T05:35:24.730Z,100219.55
2019-03-01T05:37:51.879Z,100216.67
2019-03-01T05:40:19.206Z,100217.28
2019-03-01T05:42:46.363Z,100215.36
2019-03-01T05:45:19.067Z,100215.26
2019-03-01T05:47:46.146Z,100218.48
2019-03-01T05:50:13.507Z,100214.16
2019-03-01T05:52:40.774Z,100216.81
2019-03-01T05:55:08.313Z,100220.13
2019-03-01T05:57:35.847Z,100222.06
2019-03-01T06:00:06.050Z,100227.44
2019-03-01T06:03:22.715Z,100223.26
2019-03-01T06:05:50.011Z,100222.52
2019-03-01T06:08:48.120Z,100223.73
2019-03-01T06:11:48.012Z,100220.75
2019-03-01T06:15:15.535Z,100213.30
2019-03-01T06:18:19.300Z,100216.52
2019-03-01T06:20:52.309Z,100215.23
2019-03-01T06:23:51.128Z,100212.00
2019-03-01T06:26:49.795Z,100208.79
2019-03-01T06:29:43.748Z,100213.92
2019-03-01T06:32:36.218Z,100220.37
2019-03-01T06:35:34.757Z,100219.19
2019-03-01T06:39:12.042Z,100217.76
2019-03-01T06:41:55.702Z,100205.79
2019-03-01T06:44:57.211Z,100211.28
2019-03-01T06:47:38.816Z,100207.70
2019-03-01T06:50:17.144Z,100212.36
2019-03-01T06:52:44.324Z,100203.83
2019-03-01T06:55:36.728Z,100207.53
2019-03-01T06:58:05.076Z,100206.10
2019-03-01T07:00:35.842Z,100206.67
2019-03-01T07:03:03.205Z,100196.16
2019-03-01T07:05:30.418Z,100197.27
2019-03-01T07:07:57.580Z,100198.52
2019-03-01T07:10:25.037Z,100201.31
2019-03-01T07:12:52.292Z,100203.98
2019-03-01T07:15:19.613Z,100204.08
2019-03-01T07:17:46.891Z,100195.08
2019-03-01T07:20:14.077Z,100198.69
2019-03-01T07:22:41.381Z,100208.25
2019-03-01T07:25:08.616Z,100204.47
2019-03-01T07:27:35.794Z,100209.69
2019-03-01T07:30:03.364Z,100203.62
2019-03-01T07:32:30.626Z,100200.16
2019-03-01T07:34:57.814Z,100208.81
2019-03-01T07:37:25.148Z,100202.30
2019-03-01T07:39:52.370Z,100213.19
2019-03-01T07:42:19.617Z,100213.94
2019-03-01T07:44:46.841Z,100211.88
2019-03-01T07:47:14.125Z,100211.98
2019-03-01T07:49:41.408Z,100213.82
2019-03-01T07:52:08.624Z,100215.94
2019-03-01T07:54:36.014Z,100212.73
2019-03-01T07:57:03.329Z,100211.36
2019-03-01T07:59:31.818Z,100214.84
2019-03-01T08:02:00.776Z,100211.41
2019-03-01T08:04:29.693Z,100207.88
2019-03-01T08:06:57.068Z,100214.57
2019-03-01T08:09:24.276Z,100220.09
2019-03-01T08:11:51.533Z,100223.19
2019-03-01T08:14:18.751Z,100222.12
2019-03-01T08:16:46.191Z,100229.28
2019-03-01T08:19:17.058Z,100228.00
2019-03-01T08:21:42.811Z,100227.88
2019-03-01T08:24:11.932Z,100233.53
2019-03-01T08:26:39.222Z,100230.09
2019-03-01T08:29:06.827Z,100235.34
2019-03-01T08:31:34.150Z,100232.72
2019-03-01T08:34:02.195Z,100240.95
2019-03-01T08:36:29.402Z,100234.55
2019-03-01T08:38:56.623Z,100242.41
2019-03-01T08:41:24.967Z,100238.72
2019-03-01T08:43:52.890Z,100241.11
2019-03-01T08:46:20.113Z,100240.55
2019-03-01T08:48:47.292Z,100245.73
2019-03-01T08:51:14.514Z,100243.04
2019-03-01T08:53:41.722Z,100242.88
2019-03-01T08:56:11.037Z,100239.92
2019-03-01T08:58:41.561Z,100235.42
2019-03-01T09:01:09.806Z,100239.57
2019-03-01T09:03:41.749Z,100243.50
2019-03-01T09:06:08.976Z,100248.37
2019-03-01T09:08:36.341Z,100251.89
2019-03-01T09:11:05.593Z,100245.11
2019-03-01T09:13:32.723Z,100249.33
2019-03-01T09:16:00.015Z,100242.80
2019-03-01T09:18:27.193Z,100247.94
2019-03-01T09:20:54.292Z,100246.19
2019-03-01T09:23:26.424Z,100250.87
2019-03-01T09:25:50.660Z,100248.62
2019-03-01T09:28:17.901Z,100247.40
2019-03-01T09:30:45.352Z,100254.49
2019-03-01T09:33:12.390Z,100255.17
2019-03-01T09:35:59.129Z,100256.50
2019-03-01T09:38:26.292Z,100259.61
2019-03-01T09:41:36.539Z,100268.34
2019-03-01T09:44:23.602Z,100270.84
2019-03-01T09:46:50.862Z,100278.61
2019-03-01T09:49:18.052Z,100283.44
2019-03-01T09:52:26.126Z,100286.19
2019-03-01T09:54:53.623Z,100286.27
2019-03-01T09:57:20.852Z,100294.37
2019-03-01T09:59:48.091Z,100300.16
2019-03-01T10:02:15.443Z,100302.51
2019-03-01T10:04:42.879Z,100297.13
2019-03-01T10:07:11.933Z,100303.59
2019-03-01T10:09:39.190Z,100306.88
2019-03-01T10:12:06.544Z,100305.21
2019-03-01T10:14:33.793Z,100309.92
2019-03-01T10:17:01.013Z,100318.94
2019-03-01T10:19:47.698Z,100309.92
2019-03-01T10:22:15.010Z,100305.66
2019-03-01T10:24:42.212Z,100302.88
2019-03-01T10:30:44.256Z,100300.61
2019-03-01T10:33:12.201Z,100305.37
2019-03-01T10:35:39.316Z,100306.47
2019-03-01T10:41:07.953Z,100321.97
2019-03-01T10:43:35.251Z,100316.36
2019-03-01T10:46:14.803Z,100319.16
2019-03-01T10:48:42.031Z,100315.52
2019-03-01T10:51:09.210Z,100320.25
2019-03-01T10:53:36.458Z,100321.45
2019-03-01T10:56:03.638Z,100322.46
2019-03-01T10:58:30.797Z,100318.41
2019-03-01T11:00:58.341Z,100325.34
2019-03-01T11:03:25.814Z,100321.17
2019-03-01T11:06:33.753Z,100330.66
2019-03-01T11:12:47.270Z,100328.13
2019-03-01T11:18:15.263Z,100334.83
2019-03-01T11:20:42.394Z,100334.80
2019-03-01T11:23:21.547Z,100336.88
2019-03-01T11:25:48.727Z,100339.06
2019-03-01T11:28:16.237Z,100337.81
2019-03-01T11:40:06.735Z,100344.55
2019-03-01T11:42:34.436Z,100338.34
2019-03-01T11:45:01.637Z,100346.53
2019-03-01T11:47:30.650Z,100344.46
2019-03-01T11:49:57.861Z,100346.45
2019-03-01T11:52:25.075Z,100353.70
2019-03-01T11:54:52.251Z,100350.62
2019-03-01T11:57:19.500Z,100354.77
2019-03-01T11:59:46.677Z,100352.66
2019-03-01T12:02:13.895Z,100354.22
2019-03-01T12:14:05.107Z,100374.88
2019-03-01T12:16:44.035Z,100375.52
2019-03-01T12:27:53.218Z,100395.83
2019-03-01T12:33:22.374Z,100396.64
2019-03-01T12:36:01.541Z,100411.75
2019-03-01T12:38:40.725Z,100409.91
2019-03-01T12:41:07.897Z,100417.38
2019-03-01T12:43:35.400Z,100416.56
2019-03-01T12:49:03.981Z,100416.58
2019-03-01T12:52:11.968Z,100413.55
2019-03-01T12:54:39.659Z,100417.42
2019-03-01T12:57:26.401Z,100415.02
2019-03-01T13:03:14.175Z,100418.93
2019-03-01T13:05:41.325Z,100413.70
2019-03-01T13:08:08.859Z,100424.73
2019-03-01T13:10:36.824Z,100424.89
2019-03-01T13:16:12.071Z,100436.38
2019-03-01T13:18:39.345Z,100418.84
2019-03-01T13:21:09.593Z,100418.53
2019-03-01T13:23:46.654Z,100422.23
2019-03-01T13:26:13.840Z,100413.11
2019-03-01T13:28:43.847Z,100416.95
2019-03-01T13:31:11.477Z,100416.03
2019-03-01T13:33:39.251Z,100412.49
2019-03-01T13:36:06.408Z,100416.20
2019-03-01T13:38:35.093Z,100421.59
2019-03-01T13:41:02.991Z,100415.81
2019-03-01T13:43:30.511Z,100409.84
2019-03-01T13:45:57.752Z,100417.15
2019-03-01T13:48:25.305Z,100418.86
2019-03-01T13:50:52.363Z,100420.05
2019-03-01T13:53:19.607Z,100422.48
2019-03-01T13:55:46.757Z,100423.89
2019-03-01T13:58:13.972Z,100408.33
2019-03-01T14:00:41.547Z,100427.67
2019-03-01T14:03:08.615Z,100424.28
2019-03-01T14:05:35.682Z,100421.12
2019-03-01T14:08:09.068Z,100424.78
2019-03-01T14:10:33.039Z,100430.09
2019-03-01T14:13:00.256Z,100439.46
2019-03-01T14:15:27.529Z,100436.58
2019-03-01T14:18:00.617Z,100447.43
2019-03-01T14:20:23.766Z,100460.02
2019-03-01T14:22:51.004Z,100459.55
2019-03-01T14:25:18.458Z,100462.47
2019-03-01T14:27:45.995Z,100472.25
2019-03-01T14:30:15.501Z,100462.09
2019-03-01T14:32:42.693Z,100476.22
2019-03-01T14:35:10.704Z,100469.39
2019-03-01T14:37:37.919Z,100471.20
2019-03-01T14:40:07.112Z,100469.75
2019-03-01T14:42:34.325Z,100464.80
2019-03-01T14:45:01.571Z,100459.38
2019-03-01T14:47:32.589Z,100470.09
2019-03-01T14:49:58.738Z,100468.77
2019-03-01T14:52:26.250Z,100476.50
2019-03-01T14:54:54.149Z,100481.32
2019-03-01T14:57:30.725Z,100472.75
2019-03-01T15:00:14.234Z,100476.70
2019-03-01T15:02:53.273Z,100472.38
2019-03-01T15:05:20.892Z,100479.34
2019-03-01T15:07:48.065Z,100489.25
2019-03-01T15:10:16.005Z,100489.59
2019-03-01T15:12:43.304Z,100489.19
2019-03-01T15:15:11.613Z,100489.95
2019-03-01T15:17:39.216Z,100506.95
2019-03-01T15:20:08.943Z,100506.52
2019-03-01T15:22:36.186Z,100508.60
2019-03-01T15:25:04.161Z,100514.44
2019-03-01T15:27:31.401Z,100521.51
2019-03-01T15:29:58.611Z,100508.00
2019-03-01T15:32:26.044Z,100503.38
2019-03-01T15:34:53.225Z,100500.69
2019-03-01T15:37:20.443Z,100506.61
2019-03-01T15:39:47.925Z,100514.61
2019-03-01T15:42:17.880Z,100525.86
2019-03-01T15:44:44.495Z,100535.69
2019-03-01T15:47:11.647Z,100533.83
2019-03-01T15:49:38.854Z,100533.44
2019-03-01T15:52:06.318Z,100537.41
2019-03-01T15:54:35.857Z,100540.44
2019-03-01T15:57:02.849Z,100549.59
2019-03-01T15:59:30.037Z,100546.48
2019-03-01T16:01:57.269Z,100561.23
2019-03-01T16:04:24.797Z,100561.70
2019-03-01T16:06:55.247Z,100560.61
2019-03-01T16:09:21.727Z,100561.40
2019-03-01T16:11:53.206Z,100563.95
2019-03-01T16:14:21.102Z,100572.67
2019-03-01T16:16:50.164Z,100573.03
2019-03-01T16:19:17.402Z,100573.22
2019-03-01T16:21:44.580Z,100580.78
2019-03-01T16:24:12.214Z,100582.11
2019-03-01T16:26:39.417Z,100593.89
2019-03-01T16:29:07.311Z,100593.63
2019-03-01T16:31:35.808Z,100595.07
2019-03-01T16:34:04.358Z,100587.75
2019-03-01T16:36:52.851Z,100584.88
2019-03-01T16:39:20.596Z,100592.98
2019-03-01T16:41:51.783Z,100591.17
2019-03-01T16:44:19.042Z,100589.39
2019-03-01T16:46:46.552Z,100593.36
2019-03-01T16:49:13.757Z,100593.62
2019-03-01T16:51:41.368Z,100594.86
2019-03-01T16:54:08.925Z,100600.69
2019-03-01T16:56:38.535Z,100606.55
2019-03-01T16:59:07.315Z,100612.02
2019-03-01T17:01:34.318Z,100619.50
2019-03-01T17:04:01.508Z,100621.44
2019-03-01T17:06:29.244Z,100632.78
2019-03-01T17:08:56.422Z,100631.13
2019-03-01T17:11:23.944Z,100634.72
2019-03-01T17:13:51.456Z,100639.81
2019-03-01T17:16:20.416Z,100648.16
2019-03-01T17:18:48.606Z,100653.80
2019-03-01T17:21:16.621Z,100654.76
2019-03-01T17:23:43.868Z,100652.88
2019-03-01T17:26:11.068Z,100657.15
2019-03-01T17:28:38.346Z,100662.44
2019-03-01T17:31:05.583Z,100660.43
2019-03-01T17:33:32.893Z,100660.41
2019-03-01T17:36:00.194Z,100667.02
2019-03-01T17:38:27.409Z,100668.45
2019-03-01T17:40:54.586Z,100662.80
2019-03-01T17:43:22.211Z,100667.56
2019-03-01T17:45:49.435Z,100671.06
2019-03-01T17:48:18.340Z,100663.31
2019-03-01T17:50:45.776Z,100671.20
2019-03-01T17:53:12.962Z,100682.61
2019-03-01T17:55:40.170Z,100686.73
2019-03-01T17:58:08.919Z,100686.41
2019-03-01T18:00:37.094Z,100688.47
2019-03-01T18:03:04.314Z,100687.44
2019-03-01T18:05:31.544Z,100685.88
2019-03-01T18:08:00.019Z,100692.49
2019-03-01T18:10:28.696Z,100694.45
2019-03-01T18:12:57.319Z,100701.52
2019-03-01T18:15:24.820Z,100710.20
2019-03-01T18:17:52.467Z,100713.25
2019-03-01T18:20:19.759Z,100715.00
2019-03-01T18:22:46.963Z,100724.83
2019-03-01T18:25:14.407Z,100712.70
2019-03-01T18:27:41.776Z,100713.82
2019-03-01T18:30:12.448Z,100716.06
2019-03-01T18:32:41.740Z,100712.80
2019-03-01T18:35:11.432Z,100726.91
2019-03-01T18:37:38.663Z,100733.35
2019-03-01T18:40:07.290Z,100731.84
2019-03-01T18:42:38.056Z,100745.84
2019-03-01T18:45:07.079Z,100745.58
2019-03-01T18:47:33.951Z,100750.05
2019-03-01T18:50:01.158Z,100743.45
2019-03-01T18:52:28.645Z,100746.77
2019-03-01T18:54:55.945Z,100744.30
2019-03-01T18:57:23.465Z,100751.50
2019-03-01T18:59:50.787Z,100757.06
2019-03-01T19:02:18.076Z,100751.44
2019-03-01T19:04:45.304Z,100752.36
2019-03-01T19:07:13.046Z,100753.31
2019-03-01T19:09:40.220Z,100751.64
2019-03-01T19:12:09.485Z,100755.09
2019-03-01T19:14:39.208Z,100765.74
2019-03-01T19:17:05.898Z,100763.01
2019-03-01T19:19:33.207Z,100760.02
2019-03-01T19:22:00.396Z,100775.14
2019-03-01T19:24:27.576Z,100782.34
2019-03-01T19:26:54.799Z,100786.09
2019-03-01T19:29:22.309Z,100785.77
2019-03-01T19:31:49.526Z,100784.12
2019-03-01T19:37:17.925Z,100786.39
2019-03-01T19:46:19.949Z,100796.13
2019-03-01T19:48:59.052Z,100794.02
2019-03-01T20:00:29.999Z,100804.40
2019-03-01T20:05:58.582Z,100814.73
2019-03-01T20:08:26.416Z,100819.77
2019-03-01T20:11:16.000Z,100831.91
2019-03-01T20:13:43.235Z,100839.84
2019-03-01T20:16:51.306Z,100847.09
2019-03-01T20:23:26.528Z,100848.94
2019-03-01T20:32:35.204Z,100845.92
2019-03-01T20:38:10.633Z,100859.05
2019-03-01T20:40:37.851Z,100858.05
2019-03-01T20:43:06.918Z,100860.46
2019-03-01T20:45:59.998Z,100868.65
2019-03-01T20:48:28.947Z,100873.84
2019-03-01T20:51:02.941Z,100872.52
2019-03-01T20:53:30.180Z,100875.42
2019-03-01T20:55:57.744Z,100871.95
2019-03-01T20:58:25.117Z,100881.80
2019-03-01T21:00:52.299Z,100876.83
2019-03-01T21:06:21.111Z,100874.91
2019-03-01T21:08:48.321Z,100880.38
2019-03-01T21:14:16.859Z,100880.32
2019-03-01T21:16:44.853Z,100889.20
2019-03-01T21:19:19.046Z,100893.72
2019-03-01T21:21:46.834Z,100896.94
2019-03-01T21:24:14.016Z,100895.54
2019-03-01T21:26:41.285Z,100892.03
2019-03-01T21:29:08.955Z,100888.00
2019-03-01T21:34:48.329Z,100883.16
2019-03-01T21:37:16.638Z,100882.59
2019-03-01T21:40:46.916Z,100879.89
2019-03-01T21:43:21.028Z,100885.66
2019-03-01T21:45:48.313Z,100882.27
2019-03-01T21:48:18.632Z,100887.92
2019-03-01T21:53:57.562Z,100887.53
2019-03-01T22:00:10.930Z,100884.80
2019-03-01T22:02:38.498Z,100880.70
2019-03-01T22:05:25.150Z,100889.24
2019-03-01T22:08:12.933Z,100891.95
2019-03-01T22:10:47.026Z,100895.98
2019-03-01T22:13:16.028Z,100892.23
2019-03-01T22:15:45.403Z,100893.91
2019-03-01T22:18:12.623Z,100901.82
2019-03-01T22:20:59.217Z,100905.45
2019-03-01T22:23:26.493Z,100910.43
2019-03-01T22:25:55.601Z,100912.19
2019-03-01T22:28:43.119Z,100913.05
2019-03-01T22:31:10.333Z,100907.61
2019-03-01T22:33:39.305Z,100911.17
2019-03-01T22:36:07.172Z,100904.99
2019-03-01T22:39:16.599Z,100901.26
2019-03-01T22:41:50.153Z,100912.58
2019-03-01T22:44:17.353Z,100905.48
2019-03-01T22:47:25.412Z,100903.81
2019-03-01T22:49:52.570Z,100905.98
2019-03-01T22:52:20.142Z,100905.42
2019-03-01T22:57:27.828Z,100906.89
2019-03-01T23:09:18.944Z,100910.73
2019-03-01T23:15:19.780Z,100910.52
2019-03-01T23:17:46.842Z,100911.48
2019-03-01T23:20:14.064Z,100911.37
2019-03-01T23:22:42.668Z,100906.32
2019-03-01T23:25:30.565Z,100906.61
2019-03-01T23:27:57.793Z,100909.98
2019-03-01T23:39:48.005Z,100901.44
2019-03-01T23:42:34.646Z,100911.45
2019-03-01T23:51:06.738Z,100902.25
2019-03-01T23:54:33.851Z,100903.41
2019-03-01T23:57:20.567Z,100906.80
